Time;durP1;ratioP1;P1;durP2;ratioP2;P2;SDS_P1;SDS_P2;PMS_P1;PMS_P2;Temp;Humidity;BMP_temperature;BMP_pressure;BME280_temperature;BME280_humidity;BME280_pressure;Samples;Min_cycle;Max_cycle;Signal;HPM_P1;HPM_P2
2022/05/11 04:03:41;;;;;;;8.67;5.10;;;12.60;99.90;;;;;;5605435;24;20234;-76
2022/05/11 04:06:10;;;;;;;7.20;5.10;;;12.70;99.90;;;;;;4856847;29;20241;-76
2022/05/11 04:08:38;;;;;;;7.10;4.70;;;12.70;99.90;;;;;;4860534;29;20318;-75
2022/05/11 04:11:06;;;;;;;9.20;5.17;;;12.80;99.90;;;;;;4877559;29;20301;-76
2022/05/11 04:13:34;;;;;;;6.40;4.87;;;12.90;99.90;;;;;;4860082;29;20674;-76
2022/05/11 04:16:02;;;;;;;6.63;4.80;;;13.00;99.90;;;;;;4842989;29;20196;-76
2022/05/11 04:18:31;;;;;;;7.27;4.93;;;13.10;99.90;;;;;;4843359;29;20675;-77
2022/05/11 04:21:00;;;;;;;6.97;4.90;;;13.10;99.90;;;;;;4845818;29;20310;-79
2022/05/11 04:23:29;;;;;;;5.27;4.43;;;13.20;99.90;;;;;;4879474;29;20230;-77
2022/05/11 04:25:57;;;;;;;6.67;4.50;;;13.20;99.90;;;;;;4875061;29;20242;-77
2022/05/11 04:28:25;;;;;;;6.13;4.50;;;13.20;99.90;;;;;;4860691;29;20733;-76
2022/05/11 04:31:01;;;;;;;6.37;4.80;;;13.30;99.90;;;;;;4860165;29;20221;-76
2022/05/11 04:33:29;;;;;;;10.00;5.07;;;13.40;99.90;;;;;;4860140;29;20297;-76
2022/05/11 04:35:57;;;;;;;6.53;4.70;;;13.40;99.90;;;;;;4860864;29;20302;-76
2022/05/11 04:38:27;;;;;;;7.13;4.43;;;13.40;99.90;;;;;;4857828;29;20321;-75
2022/05/11 04:40:56;;;;;;;8.30;4.70;;;13.40;99.90;;;;;;4860767;29;20261;-74
2022/05/11 04:43:24;;;;;;;5.87;4.57;;;13.40;99.90;;;;;;4861348;29;20836;-77
2022/05/11 04:45:52;;;;;;;6.53;4.60;;;13.40;99.90;;;;;;4861811;29;20310;-77
2022/05/11 04:48:20;;;;;;;6.83;5.10;;;13.30;99.90;;;;;;4861898;29;20241;-78
2022/05/11 04:50:48;;;;;;;9.93;4.97;;;13.30;99.90;;;;;;4861235;29;20250;-76
2022/05/11 04:53:18;;;;;;;5.47;4.83;;;13.40;99.90;;;;;;4861850;29;20250;-77
2022/05/11 04:55:48;;;;;;;8.67;4.97;;;13.40;99.90;;;;;;4861741;29;20264;-77
2022/05/11 04:58:16;;;;;;;9.80;5.10;;;13.40;99.90;;;;;;4860944;29;20323;-78
2022/05/11 05:00:44;;;;;;;7.67;5.20;;;13.50;99.90;;;;;;4860694;29;20298;-79
2022/05/11 05:03:14;;;;;;;6.50;4.90;;;13.50;99.90;;;;;;4860113;29;20263;-75
2022/05/11 05:05:43;;;;;;;7.77;4.80;;;13.60;99.90;;;;;;4863109;29;20275;-78
2022/05/11 05:08:11;;;;;;;6.43;4.80;;;13.60;99.90;;;;;;4862002;29;20223;-79
2022/05/11 05:10:39;;;;;;;6.17;4.80;;;13.70;99.90;;;;;;4860000;29;20319;-76
2022/05/11 05:13:11;;;;;;;8.23;5.17;;;13.70;99.90;;;;;;4860602;29;20221;-76
2022/05/11 05:15:42;;;;;;;8.37;5.07;;;13.80;99.90;;;;;;4860086;29;20217;-77
2022/05/11 05:18:11;;;;;;;10.27;4.97;;;13.90;99.90;;;;;;4861299;29;20235;-78
2022/05/11 05:20:39;;;;;;;12.80;4.70;;;14.00;99.90;;;;;;4860704;29;20196;-79
2022/05/11 05:23:08;;;;;;;9.03;4.43;;;14.00;99.90;;;;;;4860846;29;20246;-77
2022/05/11 05:25:36;;;;;;;8.73;4.63;;;14.20;99.90;;;;;;4860879;29;20674;-78
2022/05/11 05:31:06;;;;;;;7.77;4.33;;;14.40;99.90;;;;;;4860490;29;20732;-77
2022/05/11 05:33:35;;;;;;;6.77;4.40;;;14.50;99.90;;;;;;4860924;29;20195;-77
2022/05/11 05:36:04;;;;;;;5.50;4.20;;;14.60;99.90;;;;;;4860265;29;20219;-77
2022/05/11 05:38:36;;;;;;;5.03;4.30;;;14.80;99.90;;;;;;4860290;29;20242;-77
2022/05/11 05:41:06;;;;;;;5.20;3.87;;;14.90;99.90;;;;;;4860079;29;20225;-78
2022/05/11 05:43:34;;;;;;;6.20;4.17;;;15.10;99.90;;;;;;4861256;29;20285;-76
2022/05/11 05:46:03;;;;;;;7.83;4.33;;;15.30;99.90;;;;;;4860030;29;20210;-76
2022/05/11 05:48:31;;;;;;;7.27;3.63;;;15.50;99.90;;;;;;4860115;29;20215;-76
2022/05/11 05:51:05;;;;;;;5.87;3.60;;;15.80;99.90;;;;;;4859966;29;20214;-74
2022/05/11 05:53:33;;;;;;;5.23;3.73;;;16.40;99.90;;;;;;4859984;29;20253;-72
2022/05/11 05:56:01;;;;;;;6.33;3.77;;;17.50;99.90;;;;;;4860024;29;20249;-73
2022/05/11 05:58:30;;;;;;;5.83;3.50;;;18.80;99.90;;;;;;4859756;29;20281;-72
2022/05/11 06:00:58;;;;;;;4.00;3.13;;;20.30;99.90;;;;;;4859724;29;20675;-74
2022/05/11 06:03:29;;;;;;;3.13;2.90;;;21.70;99.90;;;;;;4859836;29;20225;-74
2022/05/11 06:06:04;;;;;;;4.47;3.07;;;22.60;99.90;;;;;;4859994;29;20243;-77
2022/05/11 06:08:32;;;;;;;6.63;2.60;;;23.40;99.90;;;;;;4860050;29;20219;-77
2022/05/11 06:11:01;;;;;;;4.20;2.67;;;24.00;98.60;;;;;;4859770;29;20219;-78
2022/05/11 06:13:29;;;;;;;5.77;2.77;;;24.30;97.50;;;;;;4859752;29;20226;-77
2022/05/11 06:15:57;;;;;;;4.73;3.10;;;24.40;97.20;;;;;;4862211;29;20746;-74
2022/05/11 06:18:29;;;;;;;4.87;2.97;;;25.20;95.60;;;;;;4862845;29;20262;-75
2022/05/11 06:20:57;;;;;;;3.28;2.60;;;25.90;94.20;;;;;;4861139;29;20227;-72
2022/05/11 06:23:25;;;;;;;4.22;2.63;;;26.20;92.20;;;;;;4860758;29;20650;-75
2022/05/11 06:25:53;;;;;;;4.57;2.55;;;26.60;91.50;;;;;;4860353;29;20322;-77
2022/05/11 06:28:25;;;;;;;3.45;2.55;;;26.50;90.80;;;;;;4860638;29;20752;-76
2022/05/11 06:31:15;;;;;;;3.63;2.70;;;27.20;91.10;;;;;;4859913;29;20275;-76
2022/05/11 06:33:46;;;;;;;4.82;2.63;;;27.90;87.20;;;;;;4859628;29;20283;-76
2022/05/11 06:36:15;;;;;;;4.78;2.70;;;27.80;85.20;;;;;;4859697;29;20199;-75
2022/05/11 06:38:43;;;;;;;5.32;2.50;;;27.90;85.30;;;;;;4859418;29;20643;-76
2022/05/11 06:41:14;;;;;;;6.32;2.70;;;28.10;83.80;;;;;;4859366;29;20294;-74
2022/05/11 06:43:44;;;;;;;6.90;2.55;;;28.50;84.60;;;;;;4859363;29;20327;-77
2022/05/11 06:46:13;;;;;;;4.53;2.83;;;28.70;83.00;;;;;;4861487;29;20740;-77
2022/05/11 06:48:41;;;;;;;6.45;2.78;;;29.30;80.20;;;;;;4862899;29;20218;-75
2022/05/11 06:51:10;;;;;;;7.78;2.83;;;29.10;78.80;;;;;;4866908;29;20256;-77
2022/05/11 06:59:24;;;;;;;3.35;2.67;;;28.20;81.20;;;;;;4862634;29;20290;-75
2022/05/11 07:01:53;;;;;;;4.70;2.60;;;28.90;79.30;;;;;;4863054;29;20225;-76
2022/05/11 07:04:23;;;;;;;7.18;2.97;;;29.50;78.80;;;;;;4862673;29;20283;-74
2022/05/11 07:06:53;;;;;;;5.93;2.83;;;29.90;77.50;;;;;;4862818;29;20264;-77
2022/05/11 07:09:22;;;;;;;8.05;3.05;;;30.20;75.00;;;;;;4862714;29;20230;-76
2022/05/11 07:14:37;;;;;;;6.70;2.70;;;30.00;74.00;;;;;;4862932;29;20242;-76
2022/05/11 07:17:06;;;;;;;4.10;2.83;;;30.30;76.60;;;;;;4862798;29;20263;-75
2022/05/11 07:19:34;;;;;;;11.50;3.10;;;30.70;74.40;;;;;;4862724;29;20274;-76
2022/05/11 07:22:04;;;;;;;5.60;2.83;;;31.00;72.40;;;;;;4862326;29;20254;-74
2022/05/11 07:24:32;;;;;;;10.60;3.00;;;31.60;71.60;;;;;;4862739;29;20621;-77
2022/05/11 07:27:01;;;;;;;6.40;2.80;;;32.00;70.60;;;;;;4862443;29;20640;-74
2022/05/11 07:29:29;;;;;;;10.70;2.70;;;32.30;68.80;;;;;;4862372;29;20230;-76
2022/05/11 07:31:57;;;;;;;5.47;2.88;;;32.00;68.60;;;;;;4862321;29;20315;-76
2022/05/11 07:34:25;;;;;;;4.43;2.70;;;32.20;65.30;;;;;;4862273;29;20215;-78
2022/05/11 07:36:55;;;;;;;4.53;2.70;;;31.50;68.70;;;;;;4862581;29;20569;-77
2022/05/11 07:39:25;;;;;;;4.72;2.90;;;32.00;68.20;;;;;;4862211;29;20221;-76
2022/05/11 07:41:55;;;;;;;5.05;2.75;;;32.40;68.50;;;;;;4862699;29;20199;-77
2022/05/11 07:44:24;;;;;;;3.33;3.03;;;32.20;66.30;;;;;;4862500;29;20255;-75
2022/05/11 07:46:52;;;;;;;4.85;2.72;;;33.00;64.80;;;;;;4862236;29;20778;-79
2022/05/11 07:49:21;;;;;;;6.50;2.90;;;33.10;64.20;;;;;;4862084;29;20288;-75
2022/05/11 07:51:52;;;;;;;5.15;3.17;;;33.30;63.10;;;;;;4862290;29;20635;-75
2022/05/11 07:54:20;;;;;;;9.15;2.78;;;33.90;62.30;;;;;;4862028;29;20226;-75
2022/05/11 08:02:26;;;;;;;4.03;2.63;;;34.10;60.00;;;;;;4861722;29;20215;-74
2022/05/11 08:05:02;;;;;;;5.53;3.20;;;34.00;58.60;;;;;;4862136;29;20236;-75
2022/05/11 08:07:39;;;;;;;4.32;2.92;;;33.90;58.20;;;;;;4862510;29;20206;-75
2022/05/11 08:10:11;;;;;;;7.45;3.30;;;33.50;59.20;;;;;;4861675;29;20627;-75
2022/05/11 08:12:42;;;;;;;5.57;3.40;;;33.50;60.60;;;;;;4861704;29;20237;-75
2022/05/11 08:15:11;;;;;;;5.90;3.10;;;33.60;61.40;;;;;;4862292;29;20226;-74
2022/05/11 08:17:42;;;;;;;3.67;2.80;;;33.80;60.50;;;;;;4861556;29;20656;-75
2022/05/11 08:20:14;;;;;;;6.10;2.90;;;34.20;59.40;;;;;;4861465;29;20202;-75
2022/05/11 08:22:44;;;;;;;4.88;2.75;;;33.80;59.50;;;;;;4861359;29;20716;-76
2022/05/11 08:25:14;;;;;;;5.22;3.65;;;33.70;58.90;;;;;;4862324;29;20251;-76
2022/05/11 08:27:44;;;;;;;4.07;3.30;;;33.90;58.60;;;;;;4861556;29;20306;-75
2022/05/11 08:33:22;;;;;;;5.95;3.28;;;34.00;60.40;;;;;;4861159;29;20258;-75
2022/05/11 08:36:13;;;;;;;6.18;2.90;;;34.30;59.60;;;;;;4862067;29;20260;-76
2022/05/11 08:38:45;;;;;;;5.25;3.83;;;34.00;61.30;;;;;;4861519;29;20233;-75
2022/05/11 08:41:27;;;;;;;3.35;3.05;;;34.60;58.70;;;;;;4863352;29;20539;-75
2022/05/11 08:44:01;;;;;;;3.45;2.90;;;34.90;58.80;;;;;;4861845;29;20318;-75
2022/05/11 08:46:43;;;;;;;5.45;2.90;;;34.70;56.90;;;;;;4861018;29;20215;-75
2022/05/11 08:49:21;;;;;;;5.35;2.67;;;35.20;55.40;;;;;;4860760;29;20218;-76
2022/05/11 08:51:56;;;;;;;3.53;2.90;;;35.50;58.80;;;;;;4860758;29;20210;-76
2022/05/11 08:54:34;;;;;;;4.03;2.80;;;35.10;56.90;;;;;;4861632;29;20305;-76
2022/05/11 08:57:09;;;;;;;3.28;2.70;;;35.30;56.60;;;;;;4861447;29;20298;-77
2022/05/11 08:59:39;;;;;;;4.30;2.88;;;35.00;58.20;;;;;;4860913;29;20262;-78
2022/05/11 09:02:16;;;;;;;4.90;3.10;;;34.50;58.30;;;;;;4861269;29;20224;-76
2022/05/11 09:04:49;;;;;;;4.90;2.83;;;34.60;57.20;;;;;;4861217;29;20611;-77
2022/05/11 09:07:18;;;;;;;4.13;2.80;;;34.70;58.80;;;;;;4861191;29;20259;-76
2022/05/11 09:09:46;;;;;;;9.05;5.47;;;35.00;57.40;;;;;;4861038;29;20718;-75
2022/05/11 09:12:15;;;;;;;4.18;2.90;;;35.10;57.80;;;;;;4860967;29;20302;-78
2022/05/11 09:14:49;;;;;;;3.67;2.92;;;35.30;55.30;;;;;;4861616;29;20243;-77
2022/05/11 09:17:25;;;;;;;6.57;3.10;;;35.60;54.50;;;;;;4860741;29;20268;-77
2022/05/11 09:20:01;;;;;;;3.72;2.97;;;35.50;55.20;;;;;;4861139;29;20221;-77
2022/05/11 09:22:31;;;;;;;3.25;2.78;;;36.10;54.40;;;;;;4860823;29;20206;-77
2022/05/11 09:25:03;;;;;;;3.35;2.80;;;36.00;56.90;;;;;;4860496;29;20278;-76
2022/05/11 09:27:34;;;;;;;4.15;2.60;;;36.00;54.60;;;;;;4860911;29;20556;-76
2022/05/11 09:30:07;;;;;;;4.10;2.95;;;36.20;54.80;;;;;;4860332;29;20258;-77
2022/05/11 09:32:38;;;;;;;4.50;2.72;;;35.90;55.10;;;;;;4860629;29;20665;-76
2022/05/11 09:35:32;;;;;;;5.95;2.90;;;36.50;53.90;;;;;;4860811;29;20305;-76
2022/05/11 09:38:10;;;;;;;3.92;2.75;;;36.00;55.40;;;;;;4860641;29;20203;-77
2022/05/11 09:40:55;;;;;;;9.63;3.13;;;35.40;56.20;;;;;;4860344;29;20244;-77
2022/05/11 09:43:33;;;;;;;6.68;2.65;;;35.40;54.40;;;;;;4860444;29;20199;-76
2022/05/11 09:46:17;;;;;;;4.07;2.80;;;35.40;56.20;;;;;;4859980;29;20718;-78
2022/05/11 09:48:59;;;;;;;2.70;2.50;;;35.20;55.20;;;;;;4860271;29;20318;-75
2022/05/11 09:51:35;;;;;;;3.28;2.83;;;35.40;52.60;;;;;;4860541;29;20233;-77
2022/05/11 09:54:24;;;;;;;3.70;2.72;;;35.20;54.70;;;;;;4860756;29;20202;-78
2022/05/11 09:56:56;;;;;;;4.28;2.80;;;35.20;52.80;;;;;;4861498;29;20207;-74
2022/05/11 09:59:28;;;;;;;3.10;2.40;;;35.00;54.70;;;;;;4860175;29;20245;-76
2022/05/11 10:02:17;;;;;;;3.42;2.60;;;35.10;53.90;;;;;;4859596;29;20203;-77
2022/05/11 10:04:52;;;;;;;2.75;2.50;;;34.90;52.70;;;;;;4858571;29;20279;-74
2022/05/11 10:07:24;;;;;;;2.78;2.45;;;34.90;54.70;;;;;;4860364;29;20194;-75
2022/05/11 10:09:58;;;;;;;3.00;2.60;;;35.10;53.10;;;;;;4859506;29;20242;-76
2022/05/11 10:12:32;;;;;;;3.78;2.40;;;35.20;54.10;;;;;;4859984;29;20306;-77
2022/05/11 10:23:51;;;;;;;2.95;2.40;;;36.10;52.30;;;;;;4860168;29;20290;-76
2022/05/11 10:26:31;;;;;;;2.90;2.60;;;35.90;50.70;;;;;;4862418;29;20214;-77
2022/05/11 10:29:07;;;;;;;3.45;2.30;;;35.90;52.20;;;;;;4859304;29;20263;-75
2022/05/11 10:31:43;;;;;;;2.92;2.35;;;35.40;51.10;;;;;;4859069;29;20238;-75
2022/05/11 10:34:23;;;;;;;4.57;2.38;;;34.80;51.70;;;;;;4859597;29;20199;-75
2022/05/11 10:36:59;;;;;;;3.53;2.50;;;35.50;52.00;;;;;;4859563;29;20227;-76
2022/05/11 10:39:38;;;;;;;3.95;2.58;;;35.70;50.60;;;;;;4858960;29;20263;-75
2022/05/11 10:42:13;;;;;;;4.07;2.55;;;35.10;48.80;;;;;;4859528;29;20306;-77
2022/05/11 10:44:53;;;;;;;3.75;2.70;;;34.60;52.80;;;;;;4859931;29;20198;-76
2022/05/11 10:47:42;;;;;;;2.63;2.42;;;34.40;51.10;;;;;;4859687;29;20245;-78
2022/05/11 10:50:20;;;;;;;3.83;2.50;;;34.70;53.30;;;;;;4858823;29;20235;-74
2022/05/11 10:53:04;;;;;;;4.78;2.70;;;34.90;51.50;;;;;;4859280;29;20310;-76
2022/05/11 10:55:48;;;;;;;2.67;2.40;;;34.90;52.70;;;;;;4859270;29;20260;-77
2022/05/11 10:58:31;;;;;;;4.72;2.80;;;35.00;54.40;;;;;;4859095;29;20638;-77
2022/05/11 11:01:05;;;;;;;4.53;2.50;;;35.30;52.80;;;;;;4859358;29;20191;-75
2022/05/11 11:03:56;;;;;;;5.10;2.70;;;35.10;52.50;;;;;;4858956;29;20222;-76
2022/05/11 11:09:30;;;;;;;5.15;2.70;;;34.60;53.90;;;;;;4859114;29;20275;-78
2022/05/11 11:12:06;;;;;;;6.18;2.70;;;34.20;54.60;;;;;;4859091;29;20281;-77
2022/05/11 11:14:38;;;;;;;2.58;2.15;;;34.20;54.90;;;;;;4858785;29;20250;-76
2022/05/11 11:17:19;;;;;;;4.43;2.45;;;34.20;53.20;;;;;;4859204;29;20234;-77
2022/05/11 11:19:51;;;;;;;4.25;2.00;;;33.90;53.90;;;;;;4859005;29;20589;-75
2022/05/11 11:22:20;;;;;;;3.58;2.13;;;33.80;51.60;;;;;;4859091;29;20355;-75
2022/05/11 11:25:20;;;;;;;5.07;2.45;;;32.80;50.40;;;;;;4859155;29;20214;-75
2022/05/11 11:28:08;;;;;;;2.80;2.15;;;32.10;53.30;;;;;;4860580;29;20670;-77
2022/05/11 11:30:38;;;;;;;3.63;2.25;;;31.60;52.60;;;;;;4858719;29;20215;-76
2022/05/11 11:33:23;;;;;;;4.72;2.30;;;31.60;55.40;;;;;;4863001;29;20283;-76
2022/05/11 11:35:55;;;;;;;2.42;2.10;;;31.30;55.90;;;;;;4862345;29;20215;-75
2022/05/11 11:38:30;;;;;;;5.53;2.40;;;31.40;54.50;;;;;;4862572;29;20199;-74
2022/05/11 11:41:16;;;;;;;4.28;2.10;;;31.30;55.70;;;;;;4862157;29;20201;-77
2022/05/11 11:43:52;;;;;;;4.50;2.03;;;31.20;53.50;;;;;;4862252;29;20199;-79
2022/05/11 11:46:32;;;;;;;2.75;1.80;;;31.00;53.90;;;;;;4862299;29;20222;-78
2022/05/11 11:49:11;;;;;;;3.72;2.10;;;30.80;52.20;;;;;;4861761;29;20215;-77
2022/05/11 11:51:56;;;;;;;2.03;1.83;;;30.50;54.20;;;;;;4861812;29;20654;-79
2022/05/11 11:54:48;;;;;;;2.40;2.20;;;30.30;54.80;;;;;;4862079;29;20286;-78
2022/05/11 11:57:31;;;;;;;4.13;1.90;;;30.20;56.60;;;;;;4861976;29;20226;-74
2022/05/11 12:00:02;;;;;;;3.77;2.00;;;30.40;55.20;;;;;;4862193;29;20199;-74
2022/05/11 12:02:37;;;;;;;6.00;1.90;;;30.30;53.30;;;;;;4862070;29;20622;-75
2022/05/11 12:05:26;;;;;;;3.70;2.00;;;30.50;50.90;;;;;;4862186;29;20234;-75
2022/05/11 12:16:28;;;;;;;3.10;1.87;;;29.90;53.00;;;;;;4861870;29;20235;-76
2022/05/11 12:19:09;;;;;;;2.70;1.97;;;30.20;50.80;;;;;;4861378;29;20211;-77
2022/05/11 12:21:40;;;;;;;3.27;1.87;;;29.90;52.70;;;;;;4861538;29;20230;-73
2022/05/11 12:24:23;;;;;;;6.20;1.80;;;30.10;51.70;;;;;;4861519;29;20211;-77
2022/05/11 12:26:57;;;;;;;6.23;1.87;;;29.80;54.40;;;;;;4861546;29;20211;-76
2022/05/11 12:32:22;;;;;;;3.07;1.80;;;30.20;50.60;;;;;;4860908;29;20913;-76
2022/05/11 12:34:50;;;;;;;4.67;1.87;;;30.00;50.10;;;;;;4861597;29;20248;-78
2022/05/11 12:37:23;;;;;;;3.73;1.90;;;29.80;51.30;;;;;;4861282;29;20271;-77
2022/05/11 12:39:58;;;;;;;4.10;1.73;;;29.60;51.00;;;;;;4861404;29;20222;-77
2022/05/11 12:42:36;;;;;;;5.43;2.10;;;29.60;49.70;;;;;;4860919;29;20194;-74
2022/05/11 12:45:06;;;;;;;3.23;1.70;;;29.60;53.30;;;;;;4861323;29;20289;-77
2022/05/11 12:47:34;;;;;;;6.07;1.70;;;29.70;51.40;;;;;;4861415;29;20219;-79
2022/05/11 12:50:03;;;;;;;3.20;1.80;;;29.60;49.90;;;;;;4860831;29;20298;-75
2022/05/11 12:52:34;;;;;;;2.43;1.80;;;29.60;53.10;;;;;;4860884;29;20238;-76
2022/05/11 12:55:04;;;;;;;3.90;1.90;;;29.80;54.90;;;;;;4861455;29;20214;-75
2022/05/11 12:57:42;;;;;;;3.23;2.00;;;30.00;55.10;;;;;;4861481;29;20302;-76
2022/05/11 13:00:16;;;;;;;2.17;1.97;;;29.80;50.90;;;;;;4861339;29;20223;-74
2022/05/11 13:02:45;;;;;;;3.80;1.90;;;29.90;53.70;;;;;;4861166;29;20195;-78
2022/05/11 13:05:17;;;;;;;5.40;1.90;;;29.80;52.90;;;;;;4860409;29;20603;-78
2022/05/11 13:07:50;;;;;;;3.93;1.80;;;29.80;54.50;;;;;;4861037;29;20624;-79
2022/05/11 13:10:23;;;;;;;1.70;1.60;;;29.70;53.40;;;;;;4860040;29;20309;-78
2022/05/11 13:12:56;;;;;;;4.53;1.80;;;29.80;52.90;;;;;;4860599;29;20215;-76
2022/05/11 13:15:37;;;;;;;2.83;2.00;;;29.70;53.40;;;;;;4860671;29;20268;-79
2022/05/11 13:18:08;;;;;;;2.17;1.70;;;29.70;54.60;;;;;;4860403;29;20222;-80
2022/05/11 13:20:40;;;;;;;7.93;2.30;;;29.90;52.50;;;;;;4859262;29;20218;-77
2022/05/11 13:23:21;;;;;;;3.10;1.80;;;29.80;51.50;;;;;;4859953;29;20228;-77
2022/05/11 13:25:51;;;;;;;3.33;1.90;;;29.60;52.20;;;;;;4860560;29;20227;-75
2022/05/11 13:28:26;;;;;;;3.20;1.90;;;29.60;51.30;;;;;;4860294;29;20753;-76
2022/05/11 13:30:57;;;;;;;4.10;1.80;;;29.70;52.30;;;;;;4859753;29;20215;-78
2022/05/11 13:33:44;;;;;;;2.97;1.50;;;30.00;54.90;;;;;;4860014;29;20732;-78
2022/05/11 13:36:19;;;;;;;1.80;1.70;;;29.70;51.50;;;;;;4859850;29;20681;-77
2022/05/11 13:39:20;;;;;;;5.60;1.90;;;29.70;54.00;;;;;;4860571;29;20202;-78
2022/05/11 13:41:59;;;;;;;4.00;1.90;;;29.60;51.00;;;;;;4860067;29;20302;-74
2022/05/11 13:44:35;;;;;;;2.43;1.70;;;29.40;50.80;;;;;;4859901;29;20298;-76
2022/05/11 13:50:30;;;;;;;4.53;1.90;;;29.50;51.10;;;;;;4859713;29;20216;-75
2022/05/11 13:53:02;;;;;;;5.00;1.80;;;29.60;51.90;;;;;;4859879;29;20757;-76
2022/05/11 13:55:33;;;;;;;3.43;1.87;;;29.70;51.30;;;;;;4859155;29;20222;-77
2022/05/11 13:58:23;;;;;;;2.97;1.67;;;29.80;51.50;;;;;;4860541;29;20546;-77
2022/05/11 14:00:55;;;;;;;4.37;1.83;;;29.80;51.00;;;;;;4860433;29;20243;-77
2022/05/11 14:03:27;;;;;;;3.37;1.87;;;29.70;50.60;;;;;;4860595;29;20218;-78
2022/05/11 14:05:56;;;;;;;3.20;1.70;;;29.60;51.70;;;;;;4860623;29;20710;-76
2022/05/11 14:08:24;;;;;;;3.80;2.13;;;29.40;52.90;;;;;;4859744;29;20211;-79
2022/05/11 14:10:53;;;;;;;2.27;1.70;;;29.30;50.60;;;;;;4859358;29;20331;-79
2022/05/11 14:13:21;;;;;;;2.53;1.83;;;29.30;52.90;;;;;;4859653;29;20242;-78
2022/05/11 14:15:51;;;;;;;2.13;1.70;;;29.40;50.70;;;;;;4859623;29;20291;-78
2022/05/11 14:18:24;;;;;;;2.67;1.70;;;29.30;52.00;;;;;;4859763;29;20214;-76
2022/05/11 14:20:53;;;;;;;4.50;1.60;;;29.20;49.30;;;;;;4859054;29;20672;-74
2022/05/11 14:23:21;;;;;;;2.77;1.80;;;29.20;53.70;;;;;;4859469;29;20734;-79
2022/05/11 14:25:49;;;;;;;2.93;1.67;;;29.10;51.50;;;;;;4859807;29;20214;-75
2022/05/11 14:28:22;;;;;;;2.30;1.67;;;29.10;53.40;;;;;;4860214;29;20678;-76
2022/05/11 14:30:53;;;;;;;2.67;1.70;;;29.20;52.70;;;;;;4859570;29;20260;-75
2022/05/11 14:33:23;;;;;;;2.00;1.80;;;29.10;51.50;;;;;;4858889;29;20895;-77
2022/05/11 14:35:52;;;;;;;1.70;1.60;;;29.20;52.10;;;;;;4860109;29;20236;-75
2022/05/11 14:38:22;;;;;;;2.93;1.80;;;29.20;52.40;;;;;;4858870;29;20237;-77
2022/05/11 14:40:50;;;;;;;3.57;1.93;;;29.20;52.80;;;;;;4858610;29;20242;-77
2022/05/11 14:43:23;;;;;;;1.87;1.77;;;29.20;52.50;;;;;;4859906;29;20257;-79
2022/05/11 14:45:56;;;;;;;4.37;1.90;;;29.20;54.00;;;;;;4859635;29;20658;-77
2022/05/11 14:48:27;;;;;;;3.53;1.87;;;29.10;50.70;;;;;;4859464;29;20804;-80
2022/05/11 14:50:56;;;;;;;2.27;1.80;;;28.90;51.00;;;;;;4859131;29;20221;-76
2022/05/11 14:53:25;;;;;;;3.60;1.80;;;28.80;53.20;;;;;;4858791;29;20670;-79
2022/05/11 14:55:53;;;;;;;5.77;1.83;;;28.70;51.80;;;;;;4859424;29;20227;-79
2022/05/11 15:04:01;;;;;;;4.00;1.80;;;28.50;52.70;;;;;;4859208;29;20260;-76
2022/05/11 15:06:34;;;;;;;4.80;1.80;;;28.50;51.80;;;;;;4860692;29;20317;-76
2022/05/11 15:09:02;;;;;;;4.93;1.83;;;28.30;53.50;;;;;;4862995;29;20243;-75
2022/05/11 15:14:26;;;;;;;3.40;1.70;;;28.30;54.30;;;;;;4862804;29;20638;-74
2022/05/11 15:16:57;;;;;;;4.77;1.83;;;28.20;54.30;;;;;;4863165;29;20207;-74
2022/05/11 15:19:26;;;;;;;2.83;1.80;;;28.00;52.30;;;;;;4862886;29;20286;-75
2022/05/11 15:21:54;;;;;;;4.63;2.10;;;27.90;54.20;;;;;;4862982;29;20287;-76
2022/05/11 15:24:23;;;;;;;5.33;1.70;;;27.70;54.30;;;;;;4863470;29;20297;-75
2022/05/11 15:26:51;;;;;;;2.23;2.00;;;27.70;53.10;;;;;;4863357;29;20246;-76
2022/05/11 15:29:19;;;;;;;2.77;1.77;;;27.70;53.20;;;;;;4862703;29;20776;-76
2022/05/11 15:31:48;;;;;;;3.30;1.90;;;27.60;52.20;;;;;;4862944;29;20310;-73
2022/05/11 15:34:21;;;;;;;5.57;2.00;;;27.70;52.70;;;;;;4862877;29;20568;-75
2022/05/11 15:36:50;;;;;;;5.30;1.90;;;27.70;53.20;;;;;;4862716;29;20258;-75
2022/05/11 15:39:18;;;;;;;3.03;1.70;;;27.70;52.90;;;;;;4862568;29;20242;-75
2022/05/11 15:41:46;;;;;;;4.10;1.80;;;27.50;55.50;;;;;;4862537;29;20244;-74
2022/05/11 15:44:14;;;;;;;2.53;1.73;;;27.50;54.80;;;;;;4862630;29;20222;-77
2022/05/11 15:46:43;;;;;;;3.63;1.80;;;27.60;52.70;;;;;;4862166;29;20215;-78
2022/05/11 15:49:12;;;;;;;3.47;1.87;;;27.50;53.60;;;;;;4862131;29;20218;-73
2022/05/11 15:51:44;;;;;;;4.03;1.90;;;27.60;53.70;;;;;;4862350;29;20621;-77
2022/05/11 15:54:14;;;;;;;6.23;1.90;;;27.50;56.00;;;;;;4862412;29;20642;-77
2022/05/11 15:56:42;;;;;;;3.80;1.90;;;27.40;53.90;;;;;;4862431;29;20215;-76
2022/05/11 15:59:12;;;;;;;5.33;1.90;;;27.40;53.60;;;;;;4862055;29;20624;-75
2022/05/11 16:01:42;;;;;;;3.30;1.83;;;27.30;55.40;;;;;;4862063;29;20219;-75
2022/05/11 16:04:11;;;;;;;5.60;1.97;;;27.20;54.70;;;;;;4861899;29;20223;-75
2022/05/11 16:06:44;;;;;;;2.97;1.63;;;27.20;53.60;;;;;;4862470;29;20253;-76
2022/05/11 16:09:14;;;;;;;3.87;2.00;;;27.20;54.10;;;;;;4862383;29;20249;-78
2022/05/11 16:11:44;;;;;;;5.53;1.70;;;27.10;53.20;;;;;;4863887;29;20219;-74
2022/05/11 16:14:14;;;;;;;4.03;1.70;;;27.00;52.40;;;;;;4862864;29;20269;-75
2022/05/11 16:16:44;;;;;;;5.00;1.73;;;26.90;50.50;;;;;;4863452;29;20286;-77
2022/05/11 16:22:00;;;;;;;4.17;1.63;;;26.80;50.90;;;;;;4862813;29;20221;-74
2022/05/11 16:24:28;;;;;;;5.57;2.13;;;26.70;52.40;;;;;;4862106;29;20685;-74
2022/05/11 16:26:57;;;;;;;5.13;2.10;;;26.70;52.70;;;;;;4862360;29;20229;-78
2022/05/11 16:29:28;;;;;;;2.50;1.90;;;26.60;53.30;;;;;;4862015;29;20677;-75
2022/05/11 16:31:57;;;;;;;3.80;1.90;;;26.60;52.80;;;;;;4862392;29;20226;-75
2022/05/11 16:34:27;;;;;;;6.17;1.90;;;26.50;53.00;;;;;;4862073;29;20254;-76
2022/05/11 16:36:56;;;;;;;4.63;1.80;;;26.40;53.80;;;;;;4862618;29;20275;-76
2022/05/11 16:39:26;;;;;;;7.63;1.87;;;26.40;53.50;;;;;;4862427;29;20211;-75
2022/05/11 16:41:56;;;;;;;3.27;1.73;;;26.30;54.10;;;;;;4862621;29;20210;-73
2022/05/11 16:44:33;;;;;;;5.50;2.90;;;26.20;53.90;;;;;;4872125;29;20195;-75
2022/05/11 16:47:03;;;;;;;4.60;2.03;;;26.20;54.10;;;;;;4855141;29;20271;-76
2022/05/11 16:49:31;;;;;;;4.40;1.87;;;26.00;54.30;;;;;;4861689;29;20338;-75
2022/05/11 16:51:59;;;;;;;4.80;1.73;;;26.00;54.30;;;;;;4861398;29;20729;-75
2022/05/11 16:54:29;;;;;;;3.73;1.90;;;25.80;52.80;;;;;;4861467;29;20230;-76
2022/05/11 16:56:57;;;;;;;5.27;1.70;;;25.70;52.10;;;;;;4861591;29;20662;-75
2022/05/11 16:59:28;;;;;;;2.77;1.63;;;25.70;52.20;;;;;;4861895;29;20218;-74
2022/05/11 17:01:56;;;;;;;2.33;1.70;;;25.60;52.00;;;;;;4861561;29;20299;-76
2022/05/11 17:04:25;;;;;;;3.37;1.80;;;25.60;53.10;;;;;;4861260;29;20858;-75
2022/05/11 17:06:53;;;;;;;2.63;2.00;;;25.50;53.70;;;;;;4861670;29;20236;-75
2022/05/11 17:09:22;;;;;;;3.80;1.90;;;25.40;54.40;;;;;;4861918;29;20247;-76
2022/05/11 17:11:52;;;;;;;7.97;1.90;;;25.30;55.40;;;;;;4861921;29;20211;-75
2022/05/11 17:14:24;;;;;;;4.30;2.00;;;25.20;55.00;;;;;;4861316;29;20239;-75
2022/05/11 17:16:52;;;;;;;3.67;1.80;;;25.10;55.90;;;;;;4861624;29;20223;-74
2022/05/11 17:19:22;;;;;;;7.27;2.30;;;25.00;56.70;;;;;;4861550;29;20261;-75
2022/05/11 17:21:51;;;;;;;4.60;2.00;;;24.90;56.60;;;;;;4866969;29;20224;-75
2022/05/11 17:24:22;;;;;;;4.23;2.00;;;24.90;57.00;;;;;;4866154;29;20211;-76
2022/05/11 17:26:51;;;;;;;5.40;2.20;;;24.80;57.90;;;;;;4866236;29;20218;-77
2022/05/11 17:29:20;;;;;;;5.83;1.80;;;24.70;57.70;;;;;;4865701;29;20273;-75
2022/05/11 17:31:49;;;;;;;5.30;2.10;;;24.60;58.60;;;;;;4867440;29;20218;-75
2022/05/11 17:34:19;;;;;;;4.43;2.00;;;24.50;59.20;;;;;;4867880;29;20266;-76
2022/05/11 17:36:50;;;;;;;4.10;1.80;;;24.40;59.10;;;;;;4864211;29;20219;-75
2022/05/11 17:39:19;;;;;;;4.77;2.00;;;24.40;58.90;;;;;;4864940;29;20689;-74
2022/05/11 17:41:47;;;;;;;9.30;2.13;;;24.30;59.50;;;;;;4865699;29;20250;-76
2022/05/11 17:44:16;;;;;;;5.97;2.07;;;24.20;59.00;;;;;;4866442;29;20211;-75
2022/05/11 17:46:44;;;;;;;6.33;2.10;;;24.00;58.70;;;;;;4866780;29;20274;-76
2022/05/11 17:49:12;;;;;;;5.50;2.10;;;24.00;57.80;;;;;;4867101;29;20238;-75
2022/05/11 17:51:42;;;;;;;5.37;1.90;;;23.80;58.70;;;;;;4847675;29;20324;-80
2022/05/11 17:54:12;;;;;;;7.87;2.10;;;23.70;58.80;;;;;;4843687;29;20721;-79
2022/05/11 17:56:40;;;;;;;5.13;1.73;;;23.60;57.80;;;;;;4843654;29;20196;-75
2022/05/11 17:59:08;;;;;;;4.40;1.90;;;23.60;56.80;;;;;;4843402;29;20211;-76
2022/05/11 18:01:38;;;;;;;5.87;2.07;;;23.50;57.00;;;;;;4845927;29;20746;-76
2022/05/11 18:04:07;;;;;;;3.93;1.97;;;23.40;56.80;;;;;;4848372;29;20287;-77
2022/05/11 18:06:37;;;;;;;4.87;1.80;;;23.20;57.40;;;;;;4846755;29;20223;-76
2022/05/11 18:09:05;;;;;;;5.27;2.10;;;23.20;56.80;;;;;;4847196;29;20307;-75
2022/05/11 18:11:33;;;;;;;7.57;2.07;;;23.10;57.00;;;;;;4846667;29;20247;-75